sensor_id;sensor_type;location;lat;lon;timestamp;P1;durP1;ratioP1;P2;durP2;ratioP2
14734;SDS011;7458;49.002;8.472;2023-11-21T00:00:18;3.35;;;1.83;;
14734;SDS011;7458;49.002;8.472;2023-11-21T00:02:48;2.83;;;2.33;;
14734;SDS011;7458;49.002;8.472;2023-11-21T00:05:14;2.15;;;1.58;;
14734;SDS011;7458;49.002;8.472;2023-11-21T00:07:41;4.55;;;2.08;;
14734;SDS011;7458;49.002;8.472;2023-11-21T00:10:08;3.38;;;2.88;;
14734;SDS011;7458;49.002;8.472;2023-11-21T00:12:35;3.50;;;1.83;;
14734;SDS011;7458;49.002;8.472;2023-11-21T00:15:02;2.17;;;1.42;;
14734;SDS011;7458;49.002;8.472;2023-11-21T00:17:30;3.75;;;2.13;;
14734;SDS011;7458;49.002;8.472;2023-11-21T00:19:56;6.95;;;1.98;;
14734;SDS011;7458;49.002;8.472;2023-11-21T00:22:22;4.75;;;1.45;;
14734;SDS011;7458;49.002;8.472;2023-11-21T00:24:49;3.63;;;2.25;;
14734;SDS011;7458;49.002;8.472;2023-11-21T00:27:15;5.38;;;3.20;;
14734;SDS011;7458;49.002;8.472;2023-11-21T00:29:41;5.50;;;2.08;;
14734;SDS011;7458;49.002;8.472;2023-11-21T00:32:07;6.53;;;2.50;;
14734;SDS011;7458;49.002;8.472;2023-11-21T00:34:34;9.23;;;3.22;;
14734;SDS011;7458;49.002;8.472;2023-11-21T00:37:00;6.78;;;2.20;;
14734;SDS011;7458;49.002;8.472;2023-11-21T00:39:27;9.30;;;3.90;;
14734;SDS011;7458;49.002;8.472;2023-11-21T00:41:53;3.63;;;1.58;;
14734;SDS011;7458;49.002;8.472;2023-11-21T00:44:20;2.60;;;1.30;;
14734;SDS011;7458;49.002;8.472;2023-11-21T00:46:45;6.15;;;1.88;;
14734;SDS011;7458;49.002;8.472;2023-11-21T00:49:12;3.58;;;2.00;;
14734;SDS011;7458;49.002;8.472;2023-11-21T00:51:38;3.33;;;1.77;;
14734;SDS011;7458;49.002;8.472;2023-11-21T00:54:04;4.30;;;1.70;;
14734;SDS011;7458;49.002;8.472;2023-11-21T00:56:31;2.92;;;0.93;;
14734;SDS011;7458;49.002;8.472;2023-11-21T00:58:59;4.22;;;1.75;;
14734;SDS011;7458;49.002;8.472;2023-11-21T01:01:25;3.67;;;2.63;;
14734;SDS011;7458;49.002;8.472;2023-11-21T01:03:51;6.85;;;1.88;;
14734;SDS011;7458;49.002;8.472;2023-11-21T01:06:17;4.28;;;1.50;;
14734;SDS011;7458;49.002;8.472;2023-11-21T01:08:43;4.80;;;1.52;;
14734;SDS011;7458;49.002;8.472;2023-11-21T01:11:09;6.75;;;2.25;;
14734;SDS011;7458;49.002;8.472;2023-11-21T01:13:37;3.45;;;1.70;;
14734;SDS011;7458;49.002;8.472;2023-11-21T01:16:04;3.58;;;2.13;;
14734;SDS011;7458;49.002;8.472;2023-11-21T01:18:31;4.60;;;2.88;;
14734;SDS011;7458;49.002;8.472;2023-11-21T01:20:57;3.20;;;1.90;;
14734;SDS011;7458;49.002;8.472;2023-11-21T01:23:25;6.70;;;1.67;;
14734;SDS011;7458;49.002;8.472;2023-11-21T01:25:52;7.15;;;2.78;;
14734;SDS011;7458;49.002;8.472;2023-11-21T01:28:20;3.72;;;2.45;;
14734;SDS011;7458;49.002;8.472;2023-11-21T01:30:47;2.65;;;1.73;;
14734;SDS011;7458;49.002;8.472;2023-11-21T01:33:14;8.02;;;1.77;;
14734;SDS011;7458;49.002;8.472;2023-11-21T01:35:41;4.70;;;2.05;;
14734;SDS011;7458;49.002;8.472;2023-11-21T01:38:07;4.10;;;1.70;;
14734;SDS011;7458;49.002;8.472;2023-11-21T01:40:33;3.50;;;1.58;;
14734;SDS011;7458;49.002;8.472;2023-11-21T01:43:00;2.50;;;1.38;;
14734;SDS011;7458;49.002;8.472;2023-11-21T01:45:29;4.93;;;1.65;;
14734;SDS011;7458;49.002;8.472;2023-11-21T01:47:59;5.82;;;1.67;;
14734;SDS011;7458;49.002;8.472;2023-11-21T01:50:25;4.82;;;2.28;;
14734;SDS011;7458;49.002;8.472;2023-11-21T01:52:52;4.90;;;1.92;;
14734;SDS011;7458;49.002;8.472;2023-11-21T01:55:19;1.95;;;1.15;;
14734;SDS011;7458;49.002;8.472;2023-11-21T01:57:48;3.25;;;1.67;;
14734;SDS011;7458;49.002;8.472;2023-11-21T02:00:14;6.10;;;2.08;;
14734;SDS011;7458;49.002;8.472;2023-11-21T02:02:43;3.97;;;1.80;;
14734;SDS011;7458;49.002;8.472;2023-11-21T02:05:14;2.05;;;1.30;;
14734;SDS011;7458;49.002;8.472;2023-11-21T02:07:43;5.63;;;1.60;;
14734;SDS011;7458;49.002;8.472;2023-11-21T02:10:10;10.15;;;2.75;;
14734;SDS011;7458;49.002;8.472;2023-11-21T02:12:44;4.65;;;1.85;;
14734;SDS011;7458;49.002;8.472;2023-11-21T02:15:10;4.53;;;2.38;;
14734;SDS011;7458;49.002;8.472;2023-11-21T02:17:45;6.47;;;1.95;;
14734;SDS011;7458;49.002;8.472;2023-11-21T02:20:14;7.05;;;1.63;;
14734;SDS011;7458;49.002;8.472;2023-11-21T02:22:41;6.43;;;2.65;;
14734;SDS011;7458;49.002;8.472;2023-11-21T02:25:08;5.60;;;2.25;;
14734;SDS011;7458;49.002;8.472;2023-11-21T02:27:34;7.07;;;1.52;;
14734;SDS011;7458;49.002;8.472;2023-11-21T02:30:01;5.88;;;2.08;;
14734;SDS011;7458;49.002;8.472;2023-11-21T02:32:29;4.38;;;1.77;;
14734;SDS011;7458;49.002;8.472;2023-11-21T02:34:56;6.53;;;2.50;;
14734;SDS011;7458;49.002;8.472;2023-11-21T02:37:26;11.10;;;2.05;;
14734;SDS011;7458;49.002;8.472;2023-11-21T02:39:52;4.43;;;1.63;;
14734;SDS011;7458;49.002;8.472;2023-11-21T02:42:18;3.05;;;1.10;;
14734;SDS011;7458;49.002;8.472;2023-11-21T02:44:44;4.05;;;2.08;;
14734;SDS011;7458;49.002;8.472;2023-11-21T02:47:10;3.25;;;1.10;;
14734;SDS011;7458;49.002;8.472;2023-11-21T02:49:36;7.57;;;2.50;;
14734;SDS011;7458;49.002;8.472;2023-11-21T02:52:02;4.00;;;2.70;;
14734;SDS011;7458;49.002;8.472;2023-11-21T02:54:28;6.78;;;2.50;;
14734;SDS011;7458;49.002;8.472;2023-11-21T02:56:55;4.03;;;1.60;;
14734;SDS011;7458;49.002;8.472;2023-11-21T02:59:21;10.45;;;2.80;;
14734;SDS011;7458;49.002;8.472;2023-11-21T03:01:47;2.33;;;1.73;;
14734;SDS011;7458;49.002;8.472;2023-11-21T03:04:14;4.28;;;1.85;;
14734;SDS011;7458;49.002;8.472;2023-11-21T03:06:43;4.55;;;2.55;;
14734;SDS011;7458;49.002;8.472;2023-11-21T03:09:09;2.78;;;1.92;;
14734;SDS011;7458;49.002;8.472;2023-11-21T03:11:37;7.28;;;1.77;;
14734;SDS011;7458;49.002;8.472;2023-11-21T03:14:03;2.05;;;1.42;;
14734;SDS011;7458;49.002;8.472;2023-11-21T03:16:30;1.73;;;1.48;;
14734;SDS011;7458;49.002;8.472;2023-11-21T03:18:59;7.18;;;1.30;;
14734;SDS011;7458;49.002;8.472;2023-11-21T03:21:25;2.35;;;1.75;;
14734;SDS011;7458;49.002;8.472;2023-11-21T03:23:51;6.65;;;1.90;;
14734;SDS011;7458;49.002;8.472;2023-11-21T03:26:18;5.25;;;2.17;;
14734;SDS011;7458;49.002;8.472;2023-11-21T03:28:44;5.03;;;2.08;;
14734;SDS011;7458;49.002;8.472;2023-11-21T03:31:11;4.57;;;2.30;;
14734;SDS011;7458;49.002;8.472;2023-11-21T03:33:37;2.63;;;1.50;;
14734;SDS011;7458;49.002;8.472;2023-11-21T03:36:03;1.83;;;1.30;;
14734;SDS011;7458;49.002;8.472;2023-11-21T03:38:29;1.52;;;1.25;;
14734;SDS011;7458;49.002;8.472;2023-11-21T03:40:55;5.28;;;1.58;;
14734;SDS011;7458;49.002;8.472;2023-11-21T03:43:21;4.80;;;2.20;;
14734;SDS011;7458;49.002;8.472;2023-11-21T03:45:50;4.07;;;1.70;;
14734;SDS011;7458;49.002;8.472;2023-11-21T03:48:16;2.53;;;1.58;;
14734;SDS011;7458;49.002;8.472;2023-11-21T03:50:42;4.68;;;2.63;;
14734;SDS011;7458;49.002;8.472;2023-11-21T03:53:08;4.75;;;2.13;;
14734;SDS011;7458;49.002;8.472;2023-11-21T03:55:34;2.10;;;1.55;;
14734;SDS011;7458;49.002;8.472;2023-11-21T03:58:00;7.00;;;2.72;;
14734;SDS011;7458;49.002;8.472;2023-11-21T04:00:27;6.10;;;2.13;;
14734;SDS011;7458;49.002;8.472;2023-11-21T04:02:53;3.63;;;1.77;;
14734;SDS011;7458;49.002;8.472;2023-11-21T04:05:20;4.47;;;1.85;;
14734;SDS011;7458;49.002;8.472;2023-11-21T04:07:48;2.72;;;1.33;;
14734;SDS011;7458;49.002;8.472;2023-11-21T04:10:15;3.00;;;1.52;;
14734;SDS011;7458;49.002;8.472;2023-11-21T04:12:41;4.00;;;2.35;;
14734;SDS011;7458;49.002;8.472;2023-11-21T04:15:07;8.68;;;2.53;;
14734;SDS011;7458;49.002;8.472;2023-11-21T04:17:34;4.38;;;2.20;;
14734;SDS011;7458;49.002;8.472;2023-11-21T04:20:01;7.90;;;1.42;;
14734;SDS011;7458;49.002;8.472;2023-11-21T04:22:33;3.60;;;2.10;;
14734;SDS011;7458;49.002;8.472;2023-11-21T04:25:01;1.40;;;1.10;;
14734;SDS011;7458;49.002;8.472;2023-11-21T04:27:27;3.58;;;2.63;;
14734;SDS011;7458;49.002;8.472;2023-11-21T04:29:53;4.10;;;1.30;;
14734;SDS011;7458;49.002;8.472;2023-11-21T04:32:19;4.22;;;1.42;;
14734;SDS011;7458;49.002;8.472;2023-11-21T04:34:45;5.78;;;2.60;;
14734;SDS011;7458;49.002;8.472;2023-11-21T04:37:11;3.33;;;2.25;;
14734;SDS011;7458;49.002;8.472;2023-11-21T04:39:38;4.57;;;1.85;;
14734;SDS011;7458;49.002;8.472;2023-11-21T04:42:04;5.10;;;1.88;;
14734;SDS011;7458;49.002;8.472;2023-11-21T04:44:30;3.30;;;2.55;;
14734;SDS011;7458;49.002;8.472;2023-11-21T04:46:56;3.30;;;2.00;;
14734;SDS011;7458;49.002;8.472;2023-11-21T04:49:22;1.85;;;1.50;;
14734;SDS011;7458;49.002;8.472;2023-11-21T04:51:48;2.10;;;1.52;;
14734;SDS011;7458;49.002;8.472;2023-11-21T04:54:14;3.70;;;2.55;;
14734;SDS011;7458;49.002;8.472;2023-11-21T04:56:40;3.67;;;1.60;;
14734;SDS011;7458;49.002;8.472;2023-11-21T04:59:07;5.20;;;1.63;;
14734;SDS011;7458;49.002;8.472;2023-11-21T05:01:33;7.53;;;2.08;;
14734;SDS011;7458;49.002;8.472;2023-11-21T05:03:59;7.35;;;1.80;;
14734;SDS011;7458;49.002;8.472;2023-11-21T05:06:25;4.82;;;1.48;;
14734;SDS011;7458;49.002;8.472;2023-11-21T05:08:51;4.57;;;1.90;;
14734;SDS011;7458;49.002;8.472;2023-11-21T05:11:27;8.55;;;2.17;;
14734;SDS011;7458;49.002;8.472;2023-11-21T05:13:57;5.20;;;2.47;;
14734;SDS011;7458;49.002;8.472;2023-11-21T05:16:25;3.53;;;1.95;;
14734;SDS011;7458;49.002;8.472;2023-11-21T05:18:54;2.47;;;2.20;;
14734;SDS011;7458;49.002;8.472;2023-11-21T05:21:25;3.00;;;2.42;;
14734;SDS011;7458;49.002;8.472;2023-11-21T05:23:52;9.68;;;4.40;;
14734;SDS011;7458;49.002;8.472;2023-11-21T05:26:18;5.95;;;2.88;;
14734;SDS011;7458;49.002;8.472;2023-11-21T05:28:44;3.35;;;2.33;;
14734;SDS011;7458;49.002;8.472;2023-11-21T05:31:10;4.03;;;2.78;;
14734;SDS011;7458;49.002;8.472;2023-11-21T05:33:36;3.85;;;2.50;;
14734;SDS011;7458;49.002;8.472;2023-11-21T05:36:02;3.63;;;3.33;;
14734;SDS011;7458;49.002;8.472;2023-11-21T05:38:29;5.53;;;2.55;;
14734;SDS011;7458;49.002;8.472;2023-11-21T05:40:55;4.10;;;2.70;;
14734;SDS011;7458;49.002;8.472;2023-11-21T05:43:21;6.18;;;2.95;;
14734;SDS011;7458;49.002;8.472;2023-11-21T05:45:47;5.63;;;3.63;;
14734;SDS011;7458;49.002;8.472;2023-11-21T05:48:13;4.18;;;2.33;;
14734;SDS011;7458;49.002;8.472;2023-11-21T05:50:40;7.43;;;3.65;;
14734;SDS011;7458;49.002;8.472;2023-11-21T05:53:07;5.32;;;2.63;;
14734;SDS011;7458;49.002;8.472;2023-11-21T05:55:35;4.18;;;2.60;;
14734;SDS011;7458;49.002;8.472;2023-11-21T05:58:01;10.98;;;3.45;;
14734;SDS011;7458;49.002;8.472;2023-11-21T06:00:27;4.63;;;2.60;;
14734;SDS011;7458;49.002;8.472;2023-11-21T06:02:54;4.63;;;3.55;;
14734;SDS011;7458;49.002;8.472;2023-11-21T06:05:20;4.13;;;2.90;;
14734;SDS011;7458;49.002;8.472;2023-11-21T06:07:48;4.57;;;3.22;;
14734;SDS011;7458;49.002;8.472;2023-11-21T06:10:15;9.43;;;3.13;;
14734;SDS011;7458;49.002;8.472;2023-11-21T06:12:43;5.95;;;4.53;;
14734;SDS011;7458;49.002;8.472;2023-11-21T06:15:10;5.60;;;3.40;;
14734;SDS011;7458;49.002;8.472;2023-11-21T06:17:39;5.03;;;2.92;;
14734;SDS011;7458;49.002;8.472;2023-11-21T06:20:07;6.60;;;3.40;;
14734;SDS011;7458;49.002;8.472;2023-11-21T06:22:38;9.05;;;3.05;;
14734;SDS011;7458;49.002;8.472;2023-11-21T06:25:06;4.60;;;3.58;;
14734;SDS011;7458;49.002;8.472;2023-11-21T06:27:34;6.93;;;4.13;;
14734;SDS011;7458;49.002;8.472;2023-11-21T06:30:06;6.80;;;4.38;;
14734;SDS011;7458;49.002;8.472;2023-11-21T06:32:34;8.13;;;4.43;;
14734;SDS011;7458;49.002;8.472;2023-11-21T06:35:01;4.03;;;3.20;;
14734;SDS011;7458;49.002;8.472;2023-11-21T06:37:29;5.65;;;2.95;;
14734;SDS011;7458;49.002;8.472;2023-11-21T06:39:56;11.38;;;3.95;;
14734;SDS011;7458;49.002;8.472;2023-11-21T06:42:24;5.35;;;2.92;;
14734;SDS011;7458;49.002;8.472;2023-11-21T06:44:51;5.90;;;4.13;;
14734;SDS011;7458;49.002;8.472;2023-11-21T06:47:18;8.52;;;5.47;;
14734;SDS011;7458;49.002;8.472;2023-11-21T06:49:50;6.55;;;3.30;;
14734;SDS011;7458;49.002;8.472;2023-11-21T06:52:17;5.00;;;3.42;;
14734;SDS011;7458;49.002;8.472;2023-11-21T06:54:44;4.72;;;3.33;;
14734;SDS011;7458;49.002;8.472;2023-11-21T06:57:12;5.72;;;3.42;;
14734;SDS011;7458;49.002;8.472;2023-11-21T06:59:38;7.40;;;4.50;;
14734;SDS011;7458;49.002;8.472;2023-11-21T07:02:04;6.45;;;4.43;;
14734;SDS011;7458;49.002;8.472;2023-11-21T07:04:31;7.50;;;4.32;;
14734;SDS011;7458;49.002;8.472;2023-11-21T07:06:58;6.85;;;4.35;;
14734;SDS011;7458;49.002;8.472;2023-11-21T07:09:24;6.03;;;4.05;;
14734;SDS011;7458;49.002;8.472;2023-11-21T07:11:51;6.82;;;4.30;;
14734;SDS011;7458;49.002;8.472;2023-11-21T07:14:17;7.93;;;5.13;;
14734;SDS011;7458;49.002;8.472;2023-11-21T07:16:44;8.65;;;5.05;;
14734;SDS011;7458;49.002;8.472;2023-11-21T07:19:11;8.45;;;5.18;;
14734;SDS011;7458;49.002;8.472;2023-11-21T07:21:38;5.80;;;3.92;;
14734;SDS011;7458;49.002;8.472;2023-11-21T07:24:05;8.27;;;4.57;;
14734;SDS011;7458;49.002;8.472;2023-11-21T07:26:34;10.15;;;4.15;;
14734;SDS011;7458;49.002;8.472;2023-11-21T07:29:00;7.20;;;4.78;;
14734;SDS011;7458;49.002;8.472;2023-11-21T07:31:27;11.77;;;6.07;;
14734;SDS011;7458;49.002;8.472;2023-11-21T07:33:54;13.80;;;6.03;;
14734;SDS011;7458;49.002;8.472;2023-11-21T07:36:23;8.05;;;5.90;;
14734;SDS011;7458;49.002;8.472;2023-11-21T07:38:50;7.80;;;6.05;;
14734;SDS011;7458;49.002;8.472;2023-11-21T07:41:16;10.80;;;6.90;;
14734;SDS011;7458;49.002;8.472;2023-11-21T07:43:46;9.30;;;6.05;;
14734;SDS011;7458;49.002;8.472;2023-11-21T07:46:12;8.98;;;5.43;;
14734;SDS011;7458;49.002;8.472;2023-11-21T07:48:39;11.50;;;6.75;;
14734;SDS011;7458;49.002;8.472;2023-11-21T07:51:07;11.80;;;7.40;;
14734;SDS011;7458;49.002;8.472;2023-11-21T07:53:34;8.15;;;5.25;;
14734;SDS011;7458;49.002;8.472;2023-11-21T07:56:03;8.98;;;5.38;;
14734;SDS011;7458;49.002;8.472;2023-11-21T07:58:31;6.15;;;4.97;;
14734;SDS011;7458;49.002;8.472;2023-11-21T08:01:00;11.13;;;5.70;;
14734;SDS011;7458;49.002;8.472;2023-11-21T08:03:27;9.07;;;5.00;;
14734;SDS011;7458;49.002;8.472;2023-11-21T08:05:57;7.15;;;4.18;;
14734;SDS011;7458;49.002;8.472;2023-11-21T08:08:24;14.98;;;6.35;;
14734;SDS011;7458;49.002;8.472;2023-11-21T08:10:51;8.27;;;4.75;;
14734;SDS011;7458;49.002;8.472;2023-11-21T08:13:23;11.15;;;5.28;;
14734;SDS011;7458;49.002;8.472;2023-11-21T08:15:54;7.70;;;6.07;;
14734;SDS011;7458;49.002;8.472;2023-11-21T08:18:23;7.10;;;4.65;;
14734;SDS011;7458;49.002;8.472;2023-11-21T08:20:49;11.75;;;8.02;;
14734;SDS011;7458;49.002;8.472;2023-11-21T08:23:15;8.10;;;4.90;;
14734;SDS011;7458;49.002;8.472;2023-11-21T08:25:45;6.97;;;4.57;;
14734;SDS011;7458;49.002;8.472;2023-11-21T08:28:12;6.20;;;4.18;;
14734;SDS011;7458;49.002;8.472;2023-11-21T08:30:39;9.23;;;5.18;;
14734;SDS011;7458;49.002;8.472;2023-11-21T08:33:09;8.63;;;6.13;;
14734;SDS011;7458;49.002;8.472;2023-11-21T08:35:36;12.20;;;6.20;;
14734;SDS011;7458;49.002;8.472;2023-11-21T08:38:06;11.43;;;6.10;;
14734;SDS011;7458;49.002;8.472;2023-11-21T08:40:32;9.20;;;5.53;;
14734;SDS011;7458;49.002;8.472;2023-11-21T08:42:59;24.05;;;6.90;;
14734;SDS011;7458;49.002;8.472;2023-11-21T08:45:26;11.73;;;6.13;;
14734;SDS011;7458;49.002;8.472;2023-11-21T08:47:52;7.70;;;6.05;;
14734;SDS011;7458;49.002;8.472;2023-11-21T08:50:18;14.38;;;7.47;;
14734;SDS011;7458;49.002;8.472;2023-11-21T08:52:45;19.73;;;8.00;;
14734;SDS011;7458;49.002;8.472;2023-11-21T08:55:11;38.42;;;8.32;;
14734;SDS011;7458;49.002;8.472;2023-11-21T08:57:38;39.03;;;8.77;;
14734;SDS011;7458;49.002;8.472;2023-11-21T09:00:06;43.95;;;9.85;;
14734;SDS011;7458;49.002;8.472;2023-11-21T09:02:37;29.88;;;9.23;;
14734;SDS011;7458;49.002;8.472;2023-11-21T09:05:06;18.92;;;9.13;;
14734;SDS011;7458;49.002;8.472;2023-11-21T09:07:33;47.17;;;11.20;;
14734;SDS011;7458;49.002;8.472;2023-11-21T09:10:00;11.75;;;7.65;;
14734;SDS011;7458;49.002;8.472;2023-11-21T09:12:27;22.48;;;10.07;;
14734;SDS011;7458;49.002;8.472;2023-11-21T09:14:53;40.08;;;10.43;;
14734;SDS011;7458;49.002;8.472;2023-11-21T09:17:20;27.70;;;8.98;;
14734;SDS011;7458;49.002;8.472;2023-11-21T09:19:46;36.85;;;11.55;;
14734;SDS011;7458;49.002;8.472;2023-11-21T09:22:16;15.60;;;10.77;;
14734;SDS011;7458;49.002;8.472;2023-11-21T09:24:42;16.92;;;13.50;;
14734;SDS011;7458;49.002;8.472;2023-11-21T09:27:08;25.35;;;14.20;;
14734;SDS011;7458;49.002;8.472;2023-11-21T09:29:35;32.63;;;12.60;;
14734;SDS011;7458;49.002;8.472;2023-11-21T09:32:03;20.73;;;9.52;;
14734;SDS011;7458;49.002;8.472;2023-11-21T09:34:33;16.25;;;12.20;;
14734;SDS011;7458;49.002;8.472;2023-11-21T09:37:03;21.65;;;11.00;;
14734;SDS011;7458;49.002;8.472;2023-11-21T09:39:31;28.40;;;12.50;;
14734;SDS011;7458;49.002;8.472;2023-11-21T09:42:02;18.77;;;12.80;;
14734;SDS011;7458;49.002;8.472;2023-11-21T09:44:36;22.95;;;12.35;;
14734;SDS011;7458;49.002;8.472;2023-11-21T09:47:23;32.63;;;14.02;;
14734;SDS011;7458;49.002;8.472;2023-11-21T09:49:50;58.53;;;15.35;;
14734;SDS011;7458;49.002;8.472;2023-11-21T09:52:24;35.25;;;15.00;;
14734;SDS011;7458;49.002;8.472;2023-11-21T09:54:52;17.08;;;13.07;;
14734;SDS011;7458;49.002;8.472;2023-11-21T09:57:20;25.83;;;14.45;;
14734;SDS011;7458;49.002;8.472;2023-11-21T09:59:49;82.70;;;19.00;;
14734;SDS011;7458;49.002;8.472;2023-11-21T10:02:27;27.90;;;14.48;;
14734;SDS011;7458;49.002;8.472;2023-11-21T10:04:55;26.95;;;12.57;;
14734;SDS011;7458;49.002;8.472;2023-11-21T10:07:22;44.10;;;13.15;;
14734;SDS011;7458;49.002;8.472;2023-11-21T10:09:49;49.30;;;15.85;;
14734;SDS011;7458;49.002;8.472;2023-11-21T10:12:18;33.80;;;13.07;;
14734;SDS011;7458;49.002;8.472;2023-11-21T10:14:47;25.92;;;13.05;;
14734;SDS011;7458;49.002;8.472;2023-11-21T10:17:15;22.52;;;13.40;;
14734;SDS011;7458;49.002;8.472;2023-11-21T10:19:43;15.57;;;13.93;;
14734;SDS011;7458;49.002;8.472;2023-11-21T10:22:13;16.40;;;13.30;;
14734;SDS011;7458;49.002;8.472;2023-11-21T10:24:42;17.83;;;12.93;;
14734;SDS011;7458;49.002;8.472;2023-11-21T10:27:08;18.50;;;13.10;;
14734;SDS011;7458;49.002;8.472;2023-11-21T10:29:35;15.32;;;11.85;;
14734;SDS011;7458;49.002;8.472;2023-11-21T10:32:01;33.80;;;11.43;;
14734;SDS011;7458;49.002;8.472;2023-11-21T10:34:28;22.92;;;11.45;;
14734;SDS011;7458;49.002;8.472;2023-11-21T10:36:54;16.10;;;12.27;;
14734;SDS011;7458;49.002;8.472;2023-11-21T10:39:23;18.42;;;11.90;;
14734;SDS011;7458;49.002;8.472;2023-11-21T10:41:52;20.63;;;12.23;;
14734;SDS011;7458;49.002;8.472;2023-11-21T10:44:20;17.92;;;13.38;;
14734;SDS011;7458;49.002;8.472;2023-11-21T10:46:51;16.08;;;10.93;;
14734;SDS011;7458;49.002;8.472;2023-11-21T10:49:24;14.02;;;11.05;;
14734;SDS011;7458;49.002;8.472;2023-11-21T10:51:52;15.07;;;9.27;;
14734;SDS011;7458;49.002;8.472;2023-11-21T10:54:22;14.85;;;10.18;;
14734;SDS011;7458;49.002;8.472;2023-11-21T10:56:53;17.00;;;10.80;;
14734;SDS011;7458;49.002;8.472;2023-11-21T10:59:24;12.70;;;9.60;;
14734;SDS011;7458;49.002;8.472;2023-11-21T11:01:54;14.95;;;8.55;;
14734;SDS011;7458;49.002;8.472;2023-11-21T11:04:22;15.38;;;8.65;;
14734;SDS011;7458;49.002;8.472;2023-11-21T11:06:54;23.55;;;11.25;;
14734;SDS011;7458;49.002;8.472;2023-11-21T11:09:22;33.63;;;12.82;;
14734;SDS011;7458;49.002;8.472;2023-11-21T11:11:49;20.20;;;9.60;;
14734;SDS011;7458;49.002;8.472;2023-11-21T11:14:16;23.88;;;10.38;;
14734;SDS011;7458;49.002;8.472;2023-11-21T11:16:44;25.45;;;10.68;;
14734;SDS011;7458;49.002;8.472;2023-11-21T11:19:11;15.15;;;9.20;;
14734;SDS011;7458;49.002;8.472;2023-11-21T11:30:48;13.35;;;6.93;;
14734;SDS011;7458;49.002;8.472;2023-11-21T11:33:48;9.95;;;7.97;;
14734;SDS011;7458;49.002;8.472;2023-11-21T11:36:36;8.90;;;6.68;;
14734;SDS011;7458;49.002;8.472;2023-11-21T11:39:32;7.60;;;6.78;;
14734;SDS011;7458;49.002;8.472;2023-11-21T11:42:07;11.20;;;6.97;;
14734;SDS011;7458;49.002;8.472;2023-11-21T11:47:16;10.10;;;6.53;;
14734;SDS011;7458;49.002;8.472;2023-11-21T11:52:45;7.95;;;4.95;;
14734;SDS011;7458;49.002;8.472;2023-11-21T11:55:20;8.95;;;7.07;;
14734;SDS011;7458;49.002;8.472;2023-11-21T11:57:50;7.03;;;5.60;;
14734;SDS011;7458;49.002;8.472;2023-11-21T12:02:55;8.38;;;7.05;;
14734;SDS011;7458;49.002;8.472;2023-11-21T12:05:25;10.23;;;7.13;;
14734;SDS011;7458;49.002;8.472;2023-11-21T12:07:56;11.52;;;7.30;;
14734;SDS011;7458;49.002;8.472;2023-11-21T12:10:25;7.88;;;6.28;;
14734;SDS011;7458;49.002;8.472;2023-11-21T12:13:06;6.63;;;5.40;;
14734;SDS011;7458;49.002;8.472;2023-11-21T12:15:35;8.07;;;6.03;;
14734;SDS011;7458;49.002;8.472;2023-11-21T12:18:02;8.05;;;6.22;;
14734;SDS011;7458;49.002;8.472;2023-11-21T12:20:29;10.45;;;6.47;;
14734;SDS011;7458;49.002;8.472;2023-11-21T12:22:57;8.32;;;6.97;;
14734;SDS011;7458;49.002;8.472;2023-11-21T12:25:26;11.23;;;5.88;;
14734;SDS011;7458;49.002;8.472;2023-11-21T12:27:54;8.35;;;7.32;;
14734;SDS011;7458;49.002;8.472;2023-11-21T12:30:23;10.50;;;8.10;;
14734;SDS011;7458;49.002;8.472;2023-11-21T12:32:55;9.15;;;6.70;;
14734;SDS011;7458;49.002;8.472;2023-11-21T12:35:27;9.18;;;6.60;;
14734;SDS011;7458;49.002;8.472;2023-11-21T12:37:56;10.68;;;7.65;;
14734;SDS011;7458;49.002;8.472;2023-11-21T12:40:22;11.27;;;5.72;;
14734;SDS011;7458;49.002;8.472;2023-11-21T12:42:51;9.55;;;5.97;;
14734;SDS011;7458;49.002;8.472;2023-11-21T12:45:20;10.43;;;7.38;;
14734;SDS011;7458;49.002;8.472;2023-11-21T12:50:29;10.80;;;9.15;;
14734;SDS011;7458;49.002;8.472;2023-11-21T12:53:01;13.27;;;10.02;;
14734;SDS011;7458;49.002;8.472;2023-11-21T12:55:37;9.18;;;6.78;;
14734;SDS011;7458;49.002;8.472;2023-11-21T12:58:04;10.25;;;7.22;;
14734;SDS011;7458;49.002;8.472;2023-11-21T13:00:35;12.43;;;7.32;;
14734;SDS011;7458;49.002;8.472;2023-11-21T13:03:11;11.10;;;6.78;;
14734;SDS011;7458;49.002;8.472;2023-11-21T13:05:41;9.85;;;7.95;;
14734;SDS011;7458;49.002;8.472;2023-11-21T13:08:12;9.40;;;7.45;;
14734;SDS011;7458;49.002;8.472;2023-11-21T13:10:43;12.20;;;7.38;;
14734;SDS011;7458;49.002;8.472;2023-11-21T13:13:12;10.88;;;7.55;;
14734;SDS011;7458;49.002;8.472;2023-11-21T13:18:24;10.40;;;7.55;;
14734;SDS011;7458;49.002;8.472;2023-11-21T13:20:52;10.25;;;7.75;;
14734;SDS011;7458;49.002;8.472;2023-11-21T13:23:23;9.85;;;7.93;;
14734;SDS011;7458;49.002;8.472;2023-11-21T13:25:49;9.02;;;7.03;;
14734;SDS011;7458;49.002;8.472;2023-11-21T13:28:15;12.70;;;6.78;;
14734;SDS011;7458;49.002;8.472;2023-11-21T13:30:45;8.55;;;7.20;;
14734;SDS011;7458;49.002;8.472;2023-11-21T13:33:13;13.20;;;11.05;;
14734;SDS011;7458;49.002;8.472;2023-11-21T13:35:46;8.43;;;7.50;;
14734;SDS011;7458;49.002;8.472;2023-11-21T13:38:14;11.57;;;6.30;;
14734;SDS011;7458;49.002;8.472;2023-11-21T13:40:51;11.57;;;6.47;;
14734;SDS011;7458;49.002;8.472;2023-11-21T13:43:22;10.05;;;6.65;;
14734;SDS011;7458;49.002;8.472;2023-11-21T13:45:51;8.93;;;5.97;;
14734;SDS011;7458;49.002;8.472;2023-11-21T13:48:38;7.80;;;6.05;;
14734;SDS011;7458;49.002;8.472;2023-11-21T13:51:18;6.38;;;5.35;;
14734;SDS011;7458;49.002;8.472;2023-11-21T13:53:46;9.13;;;6.45;;
14734;SDS011;7458;49.002;8.472;2023-11-21T13:56:15;9.20;;;6.38;;
14734;SDS011;7458;49.002;8.472;2023-11-21T13:58:48;8.07;;;6.22;;
14734;SDS011;7458;49.002;8.472;2023-11-21T14:01:23;6.70;;;6.10;;
14734;SDS011;7458;49.002;8.472;2023-11-21T14:03:57;8.05;;;4.90;;
14734;SDS011;7458;49.002;8.472;2023-11-21T14:06:48;7.43;;;5.18;;
14734;SDS011;7458;49.002;8.472;2023-11-21T14:09:19;7.55;;;5.13;;
14734;SDS011;7458;49.002;8.472;2023-11-21T14:11:57;6.75;;;4.75;;
14734;SDS011;7458;49.002;8.472;2023-11-21T14:14:25;6.78;;;5.75;;
14734;SDS011;7458;49.002;8.472;2023-11-21T14:16:55;5.60;;;4.35;;
14734;SDS011;7458;49.002;8.472;2023-11-21T14:19:22;6.78;;;5.20;;
14734;SDS011;7458;49.002;8.472;2023-11-21T14:21:52;5.53;;;4.25;;
14734;SDS011;7458;49.002;8.472;2023-11-21T14:24:18;6.85;;;5.10;;
14734;SDS011;7458;49.002;8.472;2023-11-21T14:26:46;8.85;;;4.50;;
14734;SDS011;7458;49.002;8.472;2023-11-21T14:29:13;6.38;;;4.88;;
14734;SDS011;7458;49.002;8.472;2023-11-21T14:31:45;8.02;;;5.28;;
14734;SDS011;7458;49.002;8.472;2023-11-21T14:34:12;7.07;;;5.18;;
14734;SDS011;7458;49.002;8.472;2023-11-21T14:36:39;8.07;;;6.45;;
14734;SDS011;7458;49.002;8.472;2023-11-21T14:39:06;6.70;;;5.65;;
14734;SDS011;7458;49.002;8.472;2023-11-21T14:41:36;8.00;;;5.95;;
14734;SDS011;7458;49.002;8.472;2023-11-21T14:44:04;7.13;;;5.63;;
14734;SDS011;7458;49.002;8.472;2023-11-21T14:46:32;7.80;;;5.00;;
14734;SDS011;7458;49.002;8.472;2023-11-21T14:49:00;7.78;;;5.43;;
14734;SDS011;7458;49.002;8.472;2023-11-21T14:51:44;10.68;;;6.75;;
14734;SDS011;7458;49.002;8.472;2023-11-21T14:54:28;8.73;;;5.50;;
14734;SDS011;7458;49.002;8.472;2023-11-21T14:57:13;6.28;;;5.03;;
14734;SDS011;7458;49.002;8.472;2023-11-21T14:59:46;9.02;;;6.68;;
14734;SDS011;7458;49.002;8.472;2023-11-21T15:02:16;7.03;;;6.10;;
14734;SDS011;7458;49.002;8.472;2023-11-21T15:04:47;7.07;;;4.60;;
14734;SDS011;7458;49.002;8.472;2023-11-21T15:07:17;6.38;;;4.80;;
14734;SDS011;7458;49.002;8.472;2023-11-21T15:09:43;6.53;;;5.40;;
14734;SDS011;7458;49.002;8.472;2023-11-21T15:12:10;12.60;;;6.13;;
14734;SDS011;7458;49.002;8.472;2023-11-21T15:14:49;8.85;;;5.20;;
14734;SDS011;7458;49.002;8.472;2023-11-21T15:17:21;7.32;;;5.32;;
14734;SDS011;7458;49.002;8.472;2023-11-21T15:19:51;6.93;;;6.22;;
14734;SDS011;7458;49.002;8.472;2023-11-21T15:22:18;8.00;;;5.60;;
14734;SDS011;7458;49.002;8.472;2023-11-21T15:24:45;5.88;;;4.55;;